Cordova, North Carolina
Current Conditions -  °F | °C
As of 12:55 PM on Friday 24 Oct 2014 (Local Time) from KRCZ Reporting Station
Clear Clear  
Wind Chill: 64°   Ceiling: Unl
Heat Index: 64°   Visibility: 10mi
Dew Point: 45°   Wind: 0mph
Humidity: 49%   Direction: NA
Pressure: 30.04"   Gusts: NA
Location:  34.91°N, 79.82°W
Report Text: KRCZ 241655Z AUTO 00000KT 10SM CLR 18/07 A3004 RMK AO2 T01800070
Loading
Personal Weather Stations






























Interactive Weather Map
Tropical Storm Tracking
New forecast layout! Learn more

10-Day Weather Forecast

Advertisements
Track Severe Weather on mobile